Time;durP1;ratioP1;P1;durP2;ratioP2;P2;SDS_P1;SDS_P2;PMS_P1;PMS_P2;Temp;Humidity;BMP_temperature;BMP_pressure;BME280_temperature;BME280_humidity;BME280_pressure;Samples;Min_cycle;Max_cycle;Signal;HPM_P1;HPM_P2
2022/05/08 00:00:58;;;;;;;19.58;5.90;;;;;;;;;;5051423;28;20754;-78
2022/05/08 00:03:24;;;;;;;20.13;5.55;;;;;;;;;;5047364;28;20420;-79
2022/05/08 00:05:50;;;;;;;24.80;5.95;;;;;;;;;;5049215;28;20935;-79
2022/05/08 00:08:16;;;;;;;19.65;6.05;;;;;;;;;;5051634;28;20449;-78
2022/05/08 00:10:42;;;;;;;21.63;6.13;;;;;;;;;;5049551;28;20425;-78
2022/05/08 00:13:09;;;;;;;22.33;5.97;;;;;;;;;;5049520;28;20444;-78
2022/05/08 00:15:36;;;;;;;22.20;5.90;;;;;;;;;;5049776;28;20426;-78
2022/05/08 00:18:02;;;;;;;22.23;6.78;;;;;;;;;;5053008;28;20478;-78
2022/05/08 00:20:28;;;;;;;23.63;5.63;;;;;;;;;;5053923;28;20484;-78
2022/05/08 00:22:54;;;;;;;20.13;5.68;;;;;;;;;;5051058;28;20931;-78
2022/05/08 00:25:21;;;;;;;29.23;6.20;;;;;;;;;;5048957;28;20465;-79
2022/05/08 00:27:47;;;;;;;19.60;5.40;;;;;;;;;;5052283;28;20422;-79
2022/05/08 00:30:14;;;;;;;20.35;5.85;;;;;;;;;;5034748;28;20546;-78
2022/05/08 00:32:40;;;;;;;21.80;6.60;;;;;;;;;;5052203;28;20432;-79
2022/05/08 00:35:06;;;;;;;22.90;6.10;;;;;;;;;;5032819;28;20432;-79
2022/05/08 00:37:32;;;;;;;22.38;5.72;;;;;;;;;;5045023;28;20478;-79
2022/05/08 00:39:58;;;;;;;19.38;5.53;;;;;;;;;;5048989;28;20421;-78
2022/05/08 00:42:27;;;;;;;19.23;6.00;;;;;;;;;;5052273;28;20425;-78
2022/05/08 00:44:53;;;;;;;23.38;6.20;;;;;;;;;;5051638;28;20483;-78
2022/05/08 00:47:19;;;;;;;24.33;6.30;;;;;;;;;;5050567;28;20425;-78
2022/05/08 00:49:45;;;;;;;19.88;6.03;;;;;;;;;;5052130;28;20943;-79
2022/05/08 00:52:13;;;;;;;25.40;6.32;;;;;;;;;;5043186;28;20463;-77
2022/05/08 00:54:39;;;;;;;22.45;7.45;;;;;;;;;;5047025;28;20425;-77
2022/05/08 00:57:07;;;;;;;21.73;6.00;;;;;;;;;;5050176;28;20430;-77
2022/05/08 00:59:34;;;;;;;20.52;6.57;;;;;;;;;;5049623;28;20433;-77
2022/05/08 01:02:00;;;;;;;23.17;6.72;;;;;;;;;;5051589;28;20483;-77
2022/05/08 01:04:26;;;;;;;23.60;6.43;;;;;;;;;;5050456;28;20424;-77
2022/05/08 01:06:52;;;;;;;20.23;6.70;;;;;;;;;;5050130;28;20424;-77
2022/05/08 01:09:18;;;;;;;26.02;6.70;;;;;;;;;;5030284;28;20438;-77
2022/05/08 01:11:45;;;;;;;21.33;6.40;;;;;;;;;;5030945;28;20537;-77
2022/05/08 01:14:13;;;;;;;21.77;6.57;;;;;;;;;;5047208;28;20436;-77
2022/05/08 01:16:52;;;;;;;23.27;6.32;;;;;;;;;;5056386;28;20440;-77
2022/05/08 01:19:18;;;;;;;20.08;5.95;;;;;;;;;;5054729;28;20436;-77
2022/05/08 01:21:44;;;;;;;25.00;6.80;;;;;;;;;;5051196;28;20421;-77
2022/05/08 01:24:11;;;;;;;26.17;7.00;;;;;;;;;;5048008;28;20425;-77
2022/05/08 01:26:37;;;;;;;18.65;5.53;;;;;;;;;;5042642;28;20411;-77
2022/05/08 01:29:03;;;;;;;22.27;6.18;;;;;;;;;;5047929;28;20448;-77
2022/05/08 01:31:31;;;;;;;20.92;6.40;;;;;;;;;;5049719;28;20421;-77
2022/05/08 01:33:57;;;;;;;22.60;6.32;;;;;;;;;;5048958;28;20796;-77
2022/05/08 01:36:23;;;;;;;23.42;6.57;;;;;;;;;;5051474;28;20765;-77
2022/05/08 01:38:50;;;;;;;22.02;6.43;;;;;;;;;;5051370;28;20421;-78
2022/05/08 01:41:16;;;;;;;22.73;6.18;;;;;;;;;;5031386;28;20429;-78
2022/05/08 01:43:42;;;;;;;22.40;6.22;;;;;;;;;;5047664;28;20568;-78
2022/05/08 01:46:09;;;;;;;26.63;6.38;;;;;;;;;;5050396;28;20433;-78
2022/05/08 01:48:36;;;;;;;17.80;6.38;;;;;;;;;;5049700;28;20421;-78
2022/05/08 01:51:02;;;;;;;20.75;5.97;;;;;;;;;;5032688;28;20429;-78
2022/05/08 01:53:32;;;;;;;18.63;6.20;;;;;;;;;;5048751;28;20424;-78
2022/05/08 01:55:58;;;;;;;19.65;6.20;;;;;;;;;;5032265;28;20427;-78
2022/05/08 01:58:26;;;;;;;22.10;6.70;;;;;;;;;;5047903;28;20904;-78
2022/05/08 02:00:52;;;;;;;18.00;6.13;;;;;;;;;;5049715;28;20984;-78
2022/05/08 02:03:20;;;;;;;17.77;5.80;;;;;;;;;;5047808;28;20522;-78
2022/05/08 02:05:46;;;;;;;21.88;5.80;;;;;;;;;;5050382;28;20413;-78
2022/05/08 02:08:12;;;;;;;20.33;6.10;;;;;;;;;;5032848;28;20611;-78
2022/05/08 02:10:38;;;;;;;20.80;5.95;;;;;;;;;;5049455;28;20449;-78
2022/05/08 02:13:07;;;;;;;15.43;5.80;;;;;;;;;;5031630;28;20991;-78
2022/05/08 02:15:33;;;;;;;18.38;6.25;;;;;;;;;;5047728;28;20421;-78
2022/05/08 02:18:03;;;;;;;14.90;5.45;;;;;;;;;;5048160;28;20428;-78
2022/05/08 02:20:29;;;;;;;20.77;6.43;;;;;;;;;;5047859;28;20421;-78
2022/05/08 02:22:55;;;;;;;18.52;6.28;;;;;;;;;;5049795;28;20479;-78
2022/05/08 02:25:22;;;;;;;20.25;6.50;;;;;;;;;;5050144;28;20417;-78
2022/05/08 02:27:51;;;;;;;18.00;6.47;;;;;;;;;;5049697;28;20429;-78
2022/05/08 02:30:21;;;;;;;20.38;5.75;;;;;;;;;;5050725;28;20421;-78
2022/05/08 02:32:48;;;;;;;24.38;7.45;;;;;;;;;;5048476;28;20511;-78
2022/05/08 02:35:14;;;;;;;22.08;7.28;;;;;;;;;;5046225;28;20845;-78
2022/05/08 02:37:41;;;;;;;19.75;6.05;;;;;;;;;;5050748;28;20431;-78
2022/05/08 02:40:11;;;;;;;18.33;5.75;;;;;;;;;;5048193;28;20502;-78
2022/05/08 02:42:37;;;;;;;19.20;6.18;;;;;;;;;;5050418;28;20429;-78
2022/05/08 02:45:08;;;;;;;16.17;6.00;;;;;;;;;;5049468;28;20464;-78
2022/05/08 02:47:35;;;;;;;15.57;5.57;;;;;;;;;;5051080;28;20432;-78
2022/05/08 02:50:04;;;;;;;13.43;5.25;;;;;;;;;;5046803;28;20540;-77
2022/05/08 02:52:30;;;;;;;16.98;5.20;;;;;;;;;;5048105;28;20432;-78
2022/05/08 02:54:56;;;;;;;18.52;5.78;;;;;;;;;;5048977;28;20762;-78
2022/05/08 03:00:08;;;;;;;16.40;5.87;;;;;;;;;;5049375;28;20504;-78
2022/05/08 03:02:35;;;;;;;15.13;5.53;;;;;;;;;;5049197;28;20425;-78
2022/05/08 03:05:01;;;;;;;12.57;5.05;;;;;;;;;;5049080;28;20413;-78
2022/05/08 03:07:28;;;;;;;15.82;5.97;;;;;;;;;;5049547;28;20416;-77
2022/05/08 03:09:54;;;;;;;15.80;5.57;;;;;;;;;;5049351;28;20432;-77
2022/05/08 03:12:20;;;;;;;14.40;5.15;;;;;;;;;;5047010;28;20433;-78
2022/05/08 03:14:46;;;;;;;14.55;5.78;;;;;;;;;;5048828;28;20461;-77
2022/05/08 03:17:12;;;;;;;15.10;5.60;;;;;;;;;;5050139;28;20429;-78
2022/05/08 03:19:38;;;;;;;20.15;6.10;;;;;;;;;;5047718;28;20765;-78
2022/05/08 03:22:04;;;;;;;18.75;6.15;;;;;;;;;;5047277;28;20820;-78
2022/05/08 03:24:31;;;;;;;15.23;5.20;;;;;;;;;;5047875;28;20487;-78
2022/05/08 03:26:57;;;;;;;19.10;6.45;;;;;;;;;;5049834;28;20425;-78
2022/05/08 03:29:26;;;;;;;17.85;6.10;;;;;;;;;;5049547;28;20441;-77
2022/05/08 03:31:53;;;;;;;16.67;5.70;;;;;;;;;;5050819;28;20488;-77
2022/05/08 03:34:19;;;;;;;17.30;5.93;;;;;;;;;;5052800;28;20507;-77
2022/05/08 03:36:46;;;;;;;17.63;5.50;;;;;;;;;;5035648;28;20612;-77
2022/05/08 03:39:12;;;;;;;15.27;5.45;;;;;;;;;;5053768;28;21009;-77
2022/05/08 03:41:38;;;;;;;13.00;4.93;;;;;;;;;;5052549;28;20413;-78
2022/05/08 03:44:04;;;;;;;13.43;4.90;;;;;;;;;;5051659;28;20908;-78
2022/05/08 03:46:30;;;;;;;13.85;5.60;;;;;;;;;;5053780;28;20417;-78
2022/05/08 03:48:56;;;;;;;13.00;5.03;;;;;;;;;;5052489;28;21031;-77
2022/05/08 03:51:22;;;;;;;12.25;4.78;;;;;;;;;;5050433;28;20975;-77
2022/05/08 03:53:49;;;;;;;14.25;5.07;;;;;;;;;;5050126;28;20437;-77
2022/05/08 03:56:15;;;;;;;13.30;4.90;;;;;;;;;;5053407;28;20420;-78
2022/05/08 03:58:42;;;;;;;17.52;5.82;;;;;;;;;;5051783;28;20425;-78
2022/05/08 04:01:08;;;;;;;15.13;5.15;;;;;;;;;;5050554;28;20453;-77
2022/05/08 04:03:34;;;;;;;12.85;5.00;;;;;;;;;;5034501;28;20491;-77
2022/05/08 04:06:02;;;;;;;14.10;5.10;;;;;;;;;;5051545;28;20424;-77
2022/05/08 04:08:28;;;;;;;12.48;5.65;;;;;;;;;;5052014;28;20772;-77
2022/05/08 04:10:54;;;;;;;13.48;5.78;;;;;;;;;;5051407;28;20892;-77
2022/05/08 04:13:20;;;;;;;12.55;5.30;;;;;;;;;;5052347;28;20427;-77
2022/05/08 04:18:31;;;;;;;13.18;5.20;;;;;;;;;;5050978;28;20916;-78
2022/05/08 04:20:57;;;;;;;17.55;5.55;;;;;;;;;;5053050;28;20768;-78
2022/05/08 04:26:07;;;;;;;13.93;5.50;;;;;;;;;;5052964;28;20409;-78
2022/05/08 04:28:34;;;;;;;18.10;6.28;;;;;;;;;;5051240;28;20896;-78
2022/05/08 04:31:00;;;;;;;14.05;5.63;;;;;;;;;;5052814;28;20411;-78
2022/05/08 04:33:26;;;;;;;15.50;5.70;;;;;;;;;;5050978;28;20422;-78
2022/05/08 04:35:52;;;;;;;17.65;6.20;;;;;;;;;;5040245;28;20426;-78
2022/05/08 04:38:18;;;;;;;19.42;6.13;;;;;;;;;;5054739;28;20397;-78
2022/05/08 04:40:44;;;;;;;12.25;5.38;;;;;;;;;;5051462;28;20415;-78
2022/05/08 04:43:11;;;;;;;16.80;5.85;;;;;;;;;;5031723;28;20425;-78
2022/05/08 04:45:37;;;;;;;16.23;6.18;;;;;;;;;;5049604;28;20413;-78
2022/05/08 04:48:03;;;;;;;16.38;6.28;;;;;;;;;;5053342;28;20413;-78
2022/05/08 04:50:29;;;;;;;14.25;6.15;;;;;;;;;;5051709;28;20465;-79
2022/05/08 04:52:56;;;;;;;15.85;6.00;;;;;;;;;;5048981;28;20566;-78
2022/05/08 04:55:22;;;;;;;17.03;6.83;;;;;;;;;;5033325;28;20935;-78
2022/05/08 04:57:48;;;;;;;12.02;6.53;;;;;;;;;;5052748;28;20878;-78
2022/05/08 05:00:15;;;;;;;20.13;6.50;;;;;;;;;;5048722;28;20434;-78
2022/05/08 05:02:42;;;;;;;15.50;6.50;;;;;;;;;;5050179;28;20414;-78
2022/05/08 05:05:08;;;;;;;17.10;6.40;;;;;;;;;;5045891;28;20416;-76
2022/05/08 05:07:34;;;;;;;18.85;6.88;;;;;;;;;;5048837;28;20433;-77
2022/05/08 05:10:00;;;;;;;18.83;6.47;;;;;;;;;;5049915;28;20433;-78
2022/05/08 05:12:27;;;;;;;14.83;6.23;;;;;;;;;;5048987;28;20568;-79
2022/05/08 05:14:53;;;;;;;19.45;6.57;;;;;;;;;;5030667;28;20417;-79
2022/05/08 05:17:19;;;;;;;16.80;6.33;;;;;;;;;;5030623;28;20520;-80
2022/05/08 05:19:45;;;;;;;16.30;6.00;;;;;;;;;;5050687;28;20401;-81
2022/05/08 05:22:11;;;;;;;18.77;5.88;;;;;;;;;;5048686;28;20508;-80
2022/05/08 05:24:37;;;;;;;15.18;5.70;;;;;;;;;;5051749;28;20466;-80
2022/05/08 05:27:03;;;;;;;16.20;5.82;;;;;;;;;;5047123;28;20435;-80
2022/05/08 05:29:29;;;;;;;12.15;5.43;;;;;;;;;;5051343;28;20425;-80
2022/05/08 05:31:55;;;;;;;15.55;5.80;;;;;;;;;;5051122;28;20500;-81
2022/05/08 05:34:21;;;;;;;15.68;5.63;;;;;;;;;;5031855;28;20992;-80
2022/05/08 05:36:47;;;;;;;14.10;4.95;;;;;;;;;;5034516;28;20799;-81
2022/05/08 05:39:13;;;;;;;14.98;5.57;;;;;;;;;;5018669;28;20401;-81
2022/05/08 05:41:40;;;;;;;11.53;5.10;;;;;;;;;;5013079;28;20439;-81
2022/05/08 05:44:06;;;;;;;13.30;4.68;;;;;;;;;;5039634;28;20421;-81
2022/05/08 05:49:16;;;;;;;12.88;4.85;;;;;;;;;;5043887;28;20428;-78
2022/05/08 05:51:43;;;;;;;16.23;5.00;;;;;;;;;;5048841;28;20936;-79
2022/05/08 05:54:09;;;;;;;11.25;4.90;;;;;;;;;;5046969;28;20425;-78
2022/05/08 05:56:35;;;;;;;14.97;5.03;;;;;;;;;;5034272;28;20433;-79
2022/05/08 05:59:01;;;;;;;12.32;4.72;;;;;;;;;;5050385;28;20769;-79
2022/05/08 06:01:27;;;;;;;13.52;4.72;;;;;;;;;;5038567;28;20606;-79
2022/05/08 06:03:54;;;;;;;9.70;4.47;;;;;;;;;;5050301;28;20418;-78
2022/05/08 06:06:20;;;;;;;15.00;4.95;;;;;;;;;;5051997;28;20409;-79
2022/05/08 06:08:46;;;;;;;10.18;4.38;;;;;;;;;;5029887;28;20430;-80
2022/05/08 06:11:13;;;;;;;13.02;4.60;;;;;;;;;;5049051;28;20440;-79
2022/05/08 06:13:39;;;;;;;12.77;4.78;;;;;;;;;;5047566;28;20426;-79
2022/05/08 06:16:05;;;;;;;12.77;4.57;;;;;;;;;;5048781;28;20437;-79
2022/05/08 06:18:31;;;;;;;13.55;4.82;;;;;;;;;;5033222;28;20425;-80
2022/05/08 06:20:57;;;;;;;16.75;5.00;;;8.90;99.90;;;;;;5051532;28;20451;-79
2022/05/08 06:23:24;;;;;;;15.20;4.40;;;;;;;;;;5046676;28;20425;-79
2022/05/08 06:25:50;;;;;;;10.73;4.40;;;;;;;;;;5032986;28;20409;-79
2022/05/08 06:28:19;;;;;;;12.75;4.35;;;;;;;;;;5032201;28;20433;-79
2022/05/08 06:30:46;;;;;;;10.52;4.20;;;9.30;99.90;;;;;;5033039;28;20989;-79
2022/05/08 06:33:12;;;;;;;9.68;3.90;;;;;;;;;;5014277;28;20424;-79
2022/05/08 06:35:39;;;;;;;14.98;4.57;;;;;;;;;;5030774;28;20425;-79
2022/05/08 06:38:06;;;;;;;13.32;3.80;;;;;;;;;;5031455;28;20869;-80
2022/05/08 06:40:32;;;;;;;14.00;3.95;;;;;;;;;;5048593;28;20769;-79
2022/05/08 06:42:58;;;;;;;12.02;3.83;;;;;;;;;;5048190;28;20483;-80
2022/05/08 06:45:24;;;;;;;11.97;3.23;;;;;;;;;;5049030;28;20484;-80
2022/05/08 06:47:51;;;;;;;8.95;3.03;;;;;;;;;;5034176;28;20924;-80
2022/05/08 06:50:18;;;;;;;10.15;2.90;;;;;;;;;;5034408;28;20479;-80
2022/05/08 06:52:45;;;;;;;12.82;3.30;;;;;;;;;;5034276;28;20793;-80
2022/05/08 06:55:11;;;;;;;7.97;2.85;;;;;;;;;;5049465;28;20441;-79
2022/05/08 06:57:37;;;;;;;9.60;3.05;;;;;;;;;;5047188;28;20532;-80
2022/05/08 07:02:49;;;;;;;9.38;2.75;;;;;;;;;;5029264;28;20916;-80
2022/05/08 07:05:15;;;;;;;8.70;2.73;;;;;;;;;;5047258;28;20425;-80
2022/05/08 07:07:41;;;;;;;8.55;2.63;;;;;;;;;;5036591;28;20753;-80
2022/05/08 07:10:07;;;;;;;11.18;2.90;;;;;;;;;;5047361;28;20520;-79
2022/05/08 07:12:36;;;;;;;8.55;2.55;;;;;;;;;;5049872;28;20866;-78
2022/05/08 07:15:03;;;;;;;14.98;2.70;;;;;;;;;;5054964;28;20429;-80
2022/05/08 07:17:29;;;;;;;11.48;3.45;;;;;;;;;;5064979;28;20417;-79
2022/05/08 07:19:55;;;;;;;11.30;2.92;;;;;;;;;;5063450;28;20421;-80
2022/05/08 07:22:22;;;;;;;9.70;2.63;;;;;;;;;;5060700;28;20413;-80
2022/05/08 07:24:48;;;;;;;10.45;2.67;;;;;;;;;;5049209;28;20789;-81
2022/05/08 07:27:14;;;;;;;10.70;2.80;;;;;;;;;;5030508;28;20433;-79
2022/05/08 07:29:44;;;;;;;11.48;2.63;;;;;;;;;;5031438;28;20421;-79
2022/05/08 07:32:11;;;;;;;9.45;2.90;;;;;;;;;;5049678;28;20980;-78
2022/05/08 07:37:25;;;;;;;7.88;2.60;;;;;;;;;;5046864;28;20410;-78
2022/05/08 07:39:51;;;;;;;10.32;2.72;;;;;;;;;;5046090;28;20425;-80
2022/05/08 07:42:17;;;;;;;10.45;2.75;;;;;;;;;;5044553;28;20419;-80
2022/05/08 07:44:43;;;;;;;9.95;2.70;;;;;;;;;;5048458;28;20432;-81
2022/05/08 07:47:09;;;;;;;8.73;2.33;;;;;;;;;;5045486;28;20817;-81
2022/05/08 07:49:35;;;;;;;9.13;2.50;;;;;;;;;;5016008;28;20421;-80
2022/05/08 07:52:01;;;;;;;9.13;2.63;;;;;;;;;;5011885;28;20430;-79
2022/05/08 07:54:27;;;;;;;9.57;2.30;;;;;;;;;;5033660;28;20880;-80
2022/05/08 07:56:54;;;;;;;8.02;2.40;;;;;;;;;;5049658;28;20448;-80
2022/05/08 07:59:20;;;;;;;9.32;2.60;;;;;;;;;;5039670;28;20511;-82
2022/05/08 08:01:45;;;;;;;8.80;2.25;;;12.70;99.90;;;;;;5040591;28;20585;-82
2022/05/08 08:04:12;;;;;;;9.00;2.60;;;;;;;;;;5024447;28;20511;-80
2022/05/08 08:06:38;;;;;;;10.77;2.40;;;;;;;;;;5046647;28;20473;-80
2022/05/08 08:09:04;;;;;;;9.13;2.30;;;;;;;;;;5046568;28;20432;-80
2022/05/08 08:11:31;;;;;;;9.90;2.42;;;12.80;99.90;;;;;;5039570;28;20413;-80
2022/05/08 08:13:57;;;;;;;8.98;2.22;;;;;;;;;;5046627;28;20425;-80
2022/05/08 08:16:24;;;;;;;7.70;2.08;;;;;;;;;;5047753;28;20505;-80
2022/05/08 08:18:54;;;;;;;9.25;2.40;;;13.30;99.90;;;;;;5049677;28;20428;-80
2022/05/08 08:21:20;;;;;;;10.63;2.40;;;13.50;99.90;;;;;;5050350;28;20432;-81
2022/05/08 08:23:46;;;;;;;8.20;2.30;;;;;;;;;;5049412;28;20420;-81
2022/05/08 08:26:13;;;;;;;10.32;2.20;;;;;;;;;;5048461;28;20785;-79
2022/05/08 08:28:39;;;;;;;10.70;2.20;;;;;;;;;;5048964;28;20428;-80
2022/05/08 08:31:06;;;;;;;9.60;2.83;;;;;;;;;;5017095;28;20413;-79
2022/05/08 08:33:32;;;;;;;14.40;2.50;;;;;;;;;;5023216;28;20779;-79
2022/05/08 08:35:58;;;;;;;8.82;2.30;;;;;;;;;;5049293;28;20997;-79
2022/05/08 08:38:24;;;;;;;8.53;2.37;;;13.20;99.90;;;;;;5050442;28;20434;-79
2022/05/08 08:40:50;;;;;;;6.90;2.00;;;;;;;;;;5014772;28;20901;-79
2022/05/08 08:43:17;;;;;;;9.40;2.70;;;13.40;99.90;;;;;;5048422;28;20421;-79
2022/05/08 08:48:29;;;;;;;10.85;2.55;;;13.70;99.90;;;;;;5049728;28;20500;-79
2022/05/08 08:50:56;;;;;;;9.70;2.47;;;;;;;;;;5047590;28;20429;-79
2022/05/08 08:53:23;;;;;;;7.63;2.35;;;;;;;;;;5050090;28;20432;-80
2022/05/08 08:55:49;;;;;;;10.50;2.50;;;13.60;99.90;;;;;;5051146;28;20464;-79
2022/05/08 08:58:16;;;;;;;8.80;2.30;;;;;;;;;;5050941;28;20413;-80
2022/05/08 09:00:43;;;;;;;10.63;2.65;;;;;;;;;;5032833;28;20456;-80
2022/05/08 09:03:09;;;;;;;9.50;2.40;;;;;;;;;;5037816;28;20913;-78
2022/05/08 09:05:35;;;;;;;10.13;2.38;;;13.70;99.90;;;;;;5034007;28;22011;-78
2022/05/08 09:08:01;;;;;;;10.88;2.20;;;;;;;;;;5047798;28;20428;-77
2022/05/08 09:10:35;;;;;;;7.55;2.00;;;14.70;99.90;;;;;;5040820;28;20432;-78
2022/05/08 09:13:08;;;;;;;7.97;2.17;;;14.70;99.90;;;;;;5048913;28;20438;-77
2022/05/08 09:15:35;;;;;;;9.77;2.67;;;14.80;99.90;;;;;;5044266;28;20551;-76
2022/05/08 09:18:06;;;;;;;9.38;2.13;;;14.70;99.90;;;;;;5017191;28;20425;-78
2022/05/08 09:20:40;;;;;;;8.57;2.72;;;;;;;;;;5046671;28;20428;-77
2022/05/08 09:23:09;;;;;;;10.77;2.90;;;;;;;;;;5034692;28;20430;-77
2022/05/08 09:25:45;;;;;;;9.80;2.38;;;;;;;;;;5047324;28;20425;-78
2022/05/08 09:28:15;;;;;;;9.73;2.88;;;14.90;99.90;;;;;;5045812;28;20440;-77
2022/05/08 09:31:04;;;;;;;9.32;2.53;;;;;;;;;;5044649;28;20447;-76
2022/05/08 09:33:31;;;;;;;11.55;2.50;;;;;;;;;;5037028;28;20540;-78
2022/05/08 09:35:59;;;;;;;8.93;2.53;;;14.00;99.90;;;;;;5026364;28;20934;-80
2022/05/08 09:38:41;;;;;;;7.10;2.45;;;;;;;;;;5029506;28;20551;-80
2022/05/08 09:41:07;;;;;;;13.27;2.78;;;;;;;;;;5047787;28;20453;-79
2022/05/08 09:43:36;;;;;;;12.82;2.67;;;;;;;;;;5046728;28;20425;-80
2022/05/08 09:46:04;;;;;;;8.00;2.42;;;14.90;99.90;;;;;;5047834;28;20452;-79
2022/05/08 09:48:35;;;;;;;8.93;2.40;;;15.00;99.90;;;;;;5049555;28;20431;-79
2022/05/08 09:51:06;;;;;;;9.07;2.78;;;15.40;99.90;;;;;;5027256;28;20489;-79
2022/05/08 09:53:34;;;;;;;8.48;2.63;;;15.40;99.90;;;;;;5039652;28;20425;-79
2022/05/08 09:56:01;;;;;;;10.98;2.75;;;15.50;99.90;;;;;;5046687;28;20413;-79
2022/05/08 09:58:28;;;;;;;11.73;2.60;;;;;;;;;;5051128;28;20543;-77
2022/05/08 10:00:56;;;;;;;12.27;2.67;;;;;;;;;;5046157;28;20418;-77
2022/05/08 10:03:23;;;;;;;7.97;2.40;;;;;;;;;;5032085;28;21087;-77
2022/05/08 10:05:49;;;;;;;8.60;2.40;;;15.10;99.90;;;;;;5047679;28;20421;-76
2022/05/08 10:08:17;;;;;;;6.93;2.47;;;15.00;99.90;;;;;;5032344;28;20862;-78
2022/05/08 10:13:57;;;;;;;7.27;2.33;;;15.30;99.90;;;;;;5045076;28;20427;-78
2022/05/08 10:16:52;;;;;;;7.97;2.58;;;15.50;99.90;;;;;;5030849;28;20469;-78
2022/05/08 10:19:18;;;;;;;11.98;2.53;;;;;;;;;;5049753;28;20417;-79
2022/05/08 10:22:00;;;;;;;11.15;3.00;;;;;;;;;;5048698;28;20767;-76
2022/05/08 10:24:39;;;;;;;11.10;2.50;;;;;;;;;;5034749;28;20812;-76
2022/05/08 10:27:09;;;;;;;7.75;2.50;;;;;;;;;;5049275;28;20420;-76
2022/05/08 10:29:35;;;;;;;8.52;2.50;;;15.50;99.90;;;;;;5029801;28;20942;-77
2022/05/08 10:32:01;;;;;;;9.25;2.42;;;;;;;;;;5041253;28;20432;-76
2022/05/08 10:34:32;;;;;;;8.90;2.60;;;;;;;;;;5029252;28;20418;-77
2022/05/08 10:37:13;;;;;;;7.68;2.28;;;;;;;;;;5045940;28;20437;-77
2022/05/08 10:39:41;;;;;;;9.40;2.30;;;;;;;;;;5037621;28;20418;-77
2022/05/08 10:42:33;;;;;;;9.77;2.40;;;16.30;99.90;;;;;;5036542;28;20436;-77
2022/05/08 10:45:00;;;;;;;9.18;2.53;;;16.30;99.90;;;;;;5043019;28;20438;-78
2022/05/08 10:47:32;;;;;;;9.25;2.45;;;16.00;99.90;;;;;;5014944;28;20440;-78
2022/05/08 10:50:02;;;;;;;8.70;2.40;;;;;;;;;;5047457;28;20475;-78
2022/05/08 10:52:30;;;;;;;7.78;2.70;;;;;;;;;;5029725;28;20433;-77
2022/05/08 10:54:59;;;;;;;9.05;2.45;;;;;;;;;;5045930;28;20478;-77
2022/05/08 10:57:32;;;;;;;11.27;2.80;;;;;;;;;;5024144;28;20488;-76
2022/05/08 10:59:59;;;;;;;11.32;2.55;;;16.30;99.90;;;;;;5036175;28;20415;-76
2022/05/08 11:02:59;;;;;;;10.00;2.75;;;16.20;99.90;;;;;;5039979;28;20490;-76
2022/05/08 11:05:36;;;;;;;10.38;2.53;;;;;;;;;;4985272;28;20413;-76
2022/05/08 11:08:12;;;;;;;10.38;2.60;;;16.60;99.90;;;;;;5047215;28;20516;-76
2022/05/08 11:10:42;;;;;;;8.00;2.50;;;;;;;;;;5039955;28;20421;-76
2022/05/08 11:13:12;;;;;;;9.85;2.72;;;16.20;99.90;;;;;;5039830;28;20960;-76
2022/05/08 11:15:38;;;;;;;7.45;2.33;;;16.20;99.90;;;;;;5027919;28;20464;-77
2022/05/08 11:18:07;;;;;;;7.30;2.57;;;;;;;;;;5038620;28;20465;-77
2022/05/08 11:20:48;;;;;;;9.70;2.70;;;16.10;99.90;;;;;;5022722;28;20554;-77
2022/05/08 11:23:22;;;;;;;9.82;2.35;;;16.10;99.90;;;;;;5041809;28;20413;-77
2022/05/08 11:25:49;;;;;;;11.98;3.00;;;;;;;;;;5020098;28;20453;-77
2022/05/08 11:28:16;;;;;;;13.90;2.88;;;;;;;;;;5039781;28;20457;-77
2022/05/08 11:30:43;;;;;;;10.55;2.40;;;15.80;99.90;;;;;;5030111;28;20425;-77
2022/05/08 11:36:04;;;;;;;10.30;2.50;;;;;;;;;;5040550;28;20425;-77
2022/05/08 11:38:41;;;;;;;8.85;2.40;;;16.10;99.90;;;;;;5046044;28;20471;-78
2022/05/08 11:41:32;;;;;;;9.70;2.67;;;16.40;99.90;;;;;;5041398;28;20424;-78
2022/05/08 11:44:02;;;;;;;6.72;2.40;;;16.10;99.90;;;;;;5030921;28;20417;-77
2022/05/08 11:46:56;;;;;;;10.70;2.50;;;16.50;99.90;;;;;;5046642;28;20452;-78
2022/05/08 11:49:27;;;;;;;8.95;2.65;;;16.90;99.90;;;;;;5032305;28;20456;-77
2022/05/08 11:51:56;;;;;;;7.85;2.50;;;16.90;99.90;;;;;;5049507;28;20497;-77
2022/05/08 11:54:24;;;;;;;8.45;2.72;;;16.90;99.90;;;;;;5062133;28;20425;-77
2022/05/08 11:57:08;;;;;;;9.98;2.63;;;17.30;99.90;;;;;;5034394;28;20981;-77
2022/05/08 11:59:35;;;;;;;7.70;2.38;;;17.10;99.90;;;;;;5016426;28;20399;-77
2022/05/08 12:02:01;;;;;;;9.93;2.63;;;17.10;99.90;;;;;;5033988;28;20853;-76
2022/05/08 12:04:34;;;;;;;9.10;2.40;;;17.20;99.90;;;;;;5050399;28;20421;-77
2022/05/08 12:07:13;;;;;;;8.63;2.30;;;17.50;99.90;;;;;;5048585;28;20417;-76
2022/05/08 12:09:48;;;;;;;8.87;2.60;;;17.60;99.90;;;;;;5051695;28;20417;-76
2022/05/08 12:12:35;;;;;;;9.15;2.33;;;17.20;99.90;;;;;;5050582;28;20429;-77
2022/05/08 12:15:07;;;;;;;8.53;2.27;;;17.50;99.90;;;;;;5059489;28;20431;-77
2022/05/08 12:17:42;;;;;;;7.85;2.60;;;17.70;99.90;;;;;;5061937;28;20413;-76
2022/05/08 12:20:34;;;;;;;10.43;3.78;;;17.80;99.90;;;;;;5051603;28;20429;-78
2022/05/08 12:23:06;;;;;;;8.73;2.43;;;17.70;99.90;;;;;;5049958;28;20488;-77
2022/05/08 12:25:38;;;;;;;8.32;2.50;;;17.90;99.90;;;;;;5050215;28;20448;-77
2022/05/08 12:28:05;;;;;;;10.23;2.50;;;17.80;99.90;;;;;;5033474;28;20425;-77
2022/05/08 12:30:31;;;;;;;5.93;2.30;;;18.00;99.90;;;;;;5019576;28;20950;-77
2022/05/08 12:32:57;;;;;;;6.85;2.13;;;17.60;99.90;;;;;;5050346;28;20437;-76
2022/05/08 12:35:23;;;;;;;8.75;2.63;;;18.20;99.90;;;;;;5051664;28;20425;-77
2022/05/08 12:37:49;;;;;;;6.85;2.15;;;18.40;99.90;;;;;;5067694;28;20421;-77
2022/05/08 12:40:16;;;;;;;10.40;2.88;;;18.30;98.50;;;;;;5048273;28;20436;-77
2022/05/08 12:42:43;;;;;;;8.75;2.30;;;18.00;99.20;;;;;;5049838;28;20425;-77
2022/05/08 12:45:09;;;;;;;8.23;2.17;;;17.90;99.90;;;;;;5034391;28;20425;-76
2022/05/08 12:47:35;;;;;;;7.25;2.33;;;18.10;99.90;;;;;;5032735;28;20893;-75
2022/05/08 12:50:01;;;;;;;9.90;2.37;;;18.00;99.60;;;;;;5051570;28;20447;-77
2022/05/08 12:52:26;;;;;;;7.47;2.13;;;18.10;99.80;;;;;;5032436;28;20421;-77
2022/05/08 12:54:52;;;;;;;8.43;2.30;;;18.30;99.80;;;;;;5050941;28;20437;-77
2022/05/08 13:00:04;;;;;;;8.35;2.30;;;18.00;98.30;;;;;;5047203;28;21001;-77
2022/05/08 13:02:30;;;;;;;7.07;2.20;;;18.00;98.50;;;;;;5049776;28;20417;-77
2022/05/08 13:04:56;;;;;;;8.73;2.13;;;18.50;98.50;;;;;;5034750;28;20412;-78
2022/05/08 13:07:21;;;;;;;11.30;2.40;;;18.60;97.50;;;;;;5051762;28;20474;-77
2022/05/08 13:09:47;;;;;;;8.23;2.40;;;18.80;99.00;;;;;;5032099;28;20421;-78
2022/05/08 13:12:13;;;;;;;10.53;2.30;;;18.50;98.90;;;;;;5032388;28;20512;-78
2022/05/08 13:14:39;;;;;;;5.30;2.13;;;18.40;98.30;;;;;;5028889;28;20437;-77
2022/05/08 13:17:06;;;;;;;7.20;2.15;;;18.40;97.90;;;;;;5017828;28;20420;-77
2022/05/08 13:19:35;;;;;;;9.88;2.40;;;18.70;97.60;;;;;;5051805;28;20479;-77
2022/05/08 13:22:06;;;;;;;7.43;2.30;;;18.70;97.10;;;;;;5047543;28;20893;-77
2022/05/08 13:24:33;;;;;;;7.03;2.20;;;18.80;96.20;;;;;;5049643;28;20555;-78
2022/05/08 13:27:02;;;;;;;7.45;2.40;;;18.70;96.50;;;;;;5045789;28;20554;-77
2022/05/08 13:29:30;;;;;;;7.83;2.20;;;18.70;96.80;;;;;;5062163;28;20425;-78
2022/05/08 13:31:56;;;;;;;8.60;2.80;;;18.00;97.80;;;;;;5044453;28;20425;-78
2022/05/08 13:34:25;;;;;;;7.40;2.20;;;18.70;97.60;;;;;;5051200;28;20425;-78
2022/05/08 13:36:52;;;;;;;8.00;1.90;;;18.80;96.40;;;;;;5016957;28;20417;-77
2022/05/08 13:39:18;;;;;;;12.43;2.50;;;18.80;97.10;;;;;;5051030;28;20428;-78
2022/05/08 13:41:44;;;;;;;7.65;2.47;;;18.70;97.90;;;;;;5046647;28;20413;-79
2022/05/08 13:44:10;;;;;;;8.18;2.17;;;19.00;97.50;;;;;;5047191;28;20436;-78
2022/05/08 13:46:36;;;;;;;8.40;2.30;;;18.20;97.60;;;;;;5050701;28;20441;-78
2022/05/08 13:49:03;;;;;;;8.50;2.30;;;18.40;97.20;;;;;;5049092;28;21009;-78
2022/05/08 13:51:29;;;;;;;7.87;2.33;;;18.10;97.60;;;;;;5049936;28;20506;-78
2022/05/08 13:53:55;;;;;;;8.50;2.37;;;18.20;98.20;;;;;;5033469;28;20461;-78
2022/05/08 13:56:21;;;;;;;12.60;2.38;;;17.60;98.80;;;;;;5043680;28;20788;-76
2022/05/08 13:58:47;;;;;;;8.67;2.43;;;17.60;98.80;;;;;;5047817;28;20443;-78
2022/05/08 14:01:14;;;;;;;9.10;2.23;;;17.30;98.80;;;;;;5027709;28;20428;-77
2022/05/08 14:03:43;;;;;;;7.47;2.27;;;17.20;99.20;;;;;;5048128;28;20436;-77
2022/05/08 14:06:10;;;;;;;7.80;2.30;;;16.80;99.00;;;;;;5047562;28;21063;-77
2022/05/08 14:08:35;;;;;;;6.45;2.30;;;16.90;98.80;;;;;;5045532;28;20421;-77
2022/05/08 14:11:01;;;;;;;7.90;2.43;;;;;;;;;;5045628;28;20432;-77
2022/05/08 14:13:27;;;;;;;10.50;2.50;;;16.80;99.90;;;;;;5049262;28;20476;-77
2022/05/08 14:15:53;;;;;;;7.43;2.30;;;16.90;99.90;;;;;;5039143;28;20463;-77
2022/05/08 14:18:18;;;;;;;6.30;2.10;;;16.80;99.90;;;;;;5045597;28;20421;-77
2022/05/08 14:20:46;;;;;;;9.20;2.10;;;16.90;99.50;;;;;;5048899;28;20487;-77
2022/05/08 14:23:11;;;;;;;9.98;2.20;;;16.80;99.10;;;;;;5029138;28;20417;-77
2022/05/08 14:25:37;;;;;;;7.30;1.90;;;;;;;;;;5048569;28;20413;-77
2022/05/08 14:28:03;;;;;;;6.88;2.30;;;17.10;99.90;;;;;;5047080;28;20433;-77